Time;durP1;ratioP1;P1;durP2;ratioP2;P2;SDS_P1;SDS_P2;PMS_P1;PMS_P2;Temp;Humidity;BMP_temperature;BMP_pressure;BME280_temperature;BME280_humidity;BME280_pressure;Samples;Min_cycle;Max_cycle;Signal;HPM_P1;HPM_P2
2022/06/11 00:00:58;;;;;;;13.20;5.20;;;;;;;20.13;50.88;99288.47;5033287;28;20119;-72
2022/06/11 00:03:25;;;;;;;13.70;5.57;;;;;;;20.09;50.96;99284.00;5034419;28;20456;-72
2022/06/11 00:05:52;;;;;;;11.35;5.30;;;;;;;20.05;50.98;99281.19;5034101;28;20076;-73
2022/06/11 00:08:20;;;;;;;12.02;5.53;;;;;;;20.00;51.28;99278.78;5034338;28;20049;-71
2022/06/11 00:10:48;;;;;;;10.80;5.68;;;;;;;20.02;51.50;99284.00;5034264;28;20059;-72
2022/06/11 00:13:15;;;;;;;14.68;6.20;;;;;;;20.01;51.47;99290.88;5034125;28;20145;-73
2022/06/11 00:15:43;;;;;;;13.27;5.57;;;;;;;19.98;51.71;99280.38;5033012;28;20041;-72
2022/06/11 00:18:10;;;;;;;13.65;5.47;;;;;;;19.95;51.63;99282.78;5030287;28;20576;-72
2022/06/11 00:20:38;;;;;;;11.50;5.68;;;;;;;19.96;51.70;99284.41;5013271;28;20052;-72
2022/06/11 00:23:05;;;;;;;13.90;5.97;;;;;;;19.93;51.77;99278.78;5014348;28;20153;-71
2022/06/11 00:25:34;;;;;;;16.95;6.07;;;;;;;19.91;51.81;99284.81;5014623;28;20085;-70
2022/06/11 00:28:04;;;;;;;14.27;4.90;;;;;;;19.92;52.06;99289.25;5014198;28;20100;-72
2022/06/11 00:30:31;;;;;;;9.77;4.82;;;;;;;19.85;52.09;99292.06;5014199;28;20068;-70
2022/06/11 00:32:58;;;;;;;15.25;5.85;;;;;;;19.85;52.24;99283.59;5014149;28;20144;-73
2022/06/11 00:35:27;;;;;;;22.10;5.63;;;;;;;19.85;52.42;99282.78;5014008;28;20145;-72
2022/06/11 00:37:54;;;;;;;15.45;5.18;;;;;;;19.81;52.34;99299.69;5014022;28;20144;-72
2022/06/11 00:40:24;;;;;;;16.30;5.70;;;;;;;19.82;52.47;99295.69;5013914;28;20049;-72
2022/06/11 00:42:51;;;;;;;11.60;6.25;;;;;;;19.80;52.48;99294.47;5013860;28;20049;-73
2022/06/11 00:45:27;;;;;;;16.08;6.25;;;;;;;19.82;52.55;99295.69;5013567;28;20079;-72
2022/06/11 00:48:15;;;;;;;18.85;5.75;;;;;;;19.76;52.67;99302.94;5013558;28;20050;-73
2022/06/11 00:50:47;;;;;;;11.90;6.00;;;;;;;19.73;52.84;99305.75;5013906;28;20092;-71
2022/06/11 00:53:22;;;;;;;13.10;6.13;;;;;;;19.69;52.95;99302.91;5013745;28;20133;-74
2022/06/11 00:55:50;;;;;;;17.23;6.82;;;;;;;19.65;53.13;99310.56;5012934;28;20079;-73
2022/06/11 00:58:33;;;;;;;14.68;5.88;;;;;;;19.61;53.42;99304.09;5013676;28;20054;-73
2022/06/11 01:01:01;;;;;;;17.70;6.72;;;;;;;19.62;53.41;99297.25;5013701;28;20140;-72
2022/06/11 01:03:41;;;;;;;15.60;5.72;;;;;;;19.66;53.66;99309.34;5013679;28;20100;-70
2022/06/11 01:06:08;;;;;;;15.07;5.78;;;;;;;19.62;53.76;99314.19;5013365;28;20101;-72
2022/06/11 01:09:02;;;;;;;9.52;6.07;;;;;;;19.62;53.69;99313.34;5024157;28;20077;-73
2022/06/11 01:11:48;;;;;;;13.82;6.30;;;;;;;19.59;53.91;99319.78;5033121;28;20045;-73
2022/06/11 01:14:33;;;;;;;20.73;5.40;;;;;;;19.56;54.08;99314.94;5033126;28;20398;-68
2022/06/11 01:17:38;;;;;;;14.45;5.75;;;;;;;19.55;54.02;99324.63;5033013;28;20129;-73
2022/06/11 01:20:29;;;;;;;19.02;5.47;;;;;;;19.49;54.17;99321.41;5031748;28;20076;-74
2022/06/11 01:23:02;;;;;;;26.63;7.70;;;;;;;19.47;54.30;99331.44;5033045;28;20084;-74
2022/06/11 01:25:36;;;;;;;16.02;6.43;;;;;;;19.48;54.34;99331.03;5032674;28;20418;-73
2022/06/11 01:28:03;;;;;;;13.85;5.90;;;;;;;19.43;54.63;99333.44;5033074;28;20049;-72
2022/06/11 01:30:46;;;;;;;18.60;6.43;;;;;;;19.41;54.86;99324.56;5032738;28;20584;-73
2022/06/11 01:33:36;;;;;;;23.33;6.55;;;;;;;19.35;55.09;99326.97;5032511;28;20057;-72
2022/06/11 01:36:10;;;;;;;;;;;;;;;19.22;55.19;99322.81;5032529;28;20063;-74
2022/06/11 01:38:50;;;;;;;15.18;6.65;;;;;;;19.31;55.21;99330.97;5032736;28;19925;-73
2022/06/11 01:41:50;;;;;;;10.00;5.93;;;;;;;19.34;55.30;99324.53;5032725;28;20053;-73
2022/06/11 01:44:25;;;;;;;18.67;7.45;;;;;;;19.39;55.28;99333.44;5031798;28;20049;-72
2022/06/11 01:46:55;;;;;;;20.05;7.32;;;;;;;19.40;55.47;99340.72;5032554;28;20140;-74
2022/06/11 01:49:23;;;;;;;17.02;6.38;;;;;;;19.41;55.43;99342.31;5032589;28;20420;-72
2022/06/11 01:52:07;;;;;;;16.67;6.35;;;;;;;19.43;55.55;99337.09;5032567;28;20075;-74
2022/06/11 01:54:37;;;;;;;13.98;6.38;;;;;;;19.43;55.77;99339.91;5032669;28;20468;-72
2022/06/11 01:57:36;;;;;;;24.60;7.20;;;;;;;19.43;55.86;99339.09;5032574;28;20488;-76
2022/06/11 02:00:09;;;;;;;17.88;6.90;;;;;;;19.38;56.05;99348.75;5031521;28;20060;-72
2022/06/11 02:03:04;;;;;;;16.33;6.90;;;;;;;19.38;56.04;99337.47;5032631;28;20045;-72
2022/06/11 02:05:53;;;;;;;26.38;6.60;;;;;;;19.40;56.21;99340.72;5032584;28;20103;-74
2022/06/11 02:08:45;;;;;;;14.93;6.57;;;;;;;19.45;56.18;99336.69;5036358;28;20439;-71
2022/06/11 02:11:19;;;;;;;26.02;7.13;;;;;;;19.45;56.13;99331.84;5036555;28;20119;-72
2022/06/11 02:13:55;;;;;;;16.48;7.20;;;;;;;19.47;56.33;99329.44;5036271;28;20046;-70
2022/06/11 02:16:42;;;;;;;17.65;7.60;;;;;;;19.48;56.29;99319.75;5036485;28;20048;-73
2022/06/11 02:19:13;;;;;;;15.05;7.65;;;;;;;19.51;56.39;99309.72;5024144;28;20140;-73
2022/06/11 02:21:49;;;;;;;21.15;7.07;;;;;;;19.57;56.29;99311.72;5017139;28;20133;-72
2022/06/11 02:24:25;;;;;;;15.35;7.10;;;;;;;19.63;56.30;99315.78;5016450;28;20520;-72
2022/06/11 02:26:57;;;;;;;32.03;8.68;;;;;;;19.67;56.40;99310.97;5016502;28;20149;-72
2022/06/11 02:29:25;;;;;;;25.25;7.60;;;;;;;19.68;56.19;99315.41;5016292;28;20600;-71
2022/06/11 02:31:56;;;;;;;18.13;7.32;;;;;;;19.72;56.41;99306.97;5015957;28;20107;-72
2022/06/11 02:34:26;;;;;;;23.75;7.35;;;;;;;19.74;56.42;99302.53;5016231;28;20420;-71
2022/06/11 02:36:59;;;;;;;;;;;;;;;19.67;56.16;99299.69;5016447;28;20060;-74
2022/06/11 02:39:29;;;;;;;17.48;6.90;;;;;;;19.76;56.38;99302.13;5016713;28;19985;-74
2022/06/11 02:41:57;;;;;;;17.08;7.47;;;;;;;19.82;56.44;99303.34;5016711;28;20096;-74
2022/06/11 02:44:27;;;;;;;15.32;7.82;;;;;;;19.85;56.37;99309.00;5016035;28;20137;-72
2022/06/11 02:46:54;;;;;;;;;;;;;;;19.77;56.33;99310.19;5024429;28;20539;-74
2022/06/11 02:49:31;;;;;;;13.73;7.35;;;;;;;19.88;56.37;99319.50;5035774;28;19929;-72
2022/06/11 02:52:02;;;;;;;23.25;7.28;;;;;;;19.94;56.22;99317.91;5035696;28;20053;-74
2022/06/11 02:54:29;;;;;;;18.23;7.05;;;;;;;19.99;55.96;99322.34;5035442;28;20136;-71
2022/06/11 02:56:59;;;;;;;21.33;7.88;;;;;;;20.02;55.58;99327.97;5035911;28;20045;-73
2022/06/11 02:59:27;;;;;;;24.95;7.55;;;;;;;20.06;55.68;99324.34;5035598;28;20524;-71
2022/06/11 03:01:56;;;;;;;27.23;7.47;;;;;;;20.13;55.64;99315.94;5035402;28;20132;-72
2022/06/11 03:04:25;;;;;;;28.00;8.40;;;;;;;20.19;55.54;99314.34;5035130;28;20526;-72
2022/06/11 03:06:52;;;;;;;17.80;7.40;;;;;;;20.25;55.41;99318.38;5035608;28;20049;-74
2022/06/11 03:09:23;;;;;;;22.58;7.60;;;;;;;20.32;55.13;99301.41;5035505;28;20045;-74
2022/06/11 03:11:50;;;;;;;17.67;8.18;;;;;;;20.34;55.10;99302.63;5035435;28;20053;-70
2022/06/11 03:14:18;;;;;;;18.67;7.60;;;;;;;20.40;54.82;99298.19;5035467;28;20417;-72
2022/06/11 03:16:46;;;;;;;18.73;7.30;;;;;;;20.50;54.66;99290.91;5035567;28;20132;-74
2022/06/11 03:19:14;;;;;;;24.95;8.52;;;;;;;20.57;54.32;99299.41;5021883;28;20104;-72
2022/06/11 03:21:41;;;;;;;21.08;6.95;;;;;;;20.61;53.98;99303.03;5015318;28;20222;-71
2022/06/11 03:24:08;;;;;;;18.98;7.88;;;;;;;20.69;53.71;99304.66;5015590;28;20132;-70
2022/06/11 03:26:36;;;;;;;18.10;7.60;;;;;;;20.77;53.25;99309.06;5015672;28;20060;-69
2022/06/11 03:29:03;;;;;;;18.80;8.05;;;;;;;20.82;52.90;99298.16;5014964;28;20137;-68
2022/06/11 03:31:32;;;;;;;18.58;7.38;;;;;;;20.92;52.97;99307.81;5015184;28;20141;-69
2022/06/11 03:33:59;;;;;;;24.52;7.28;;;;;;;21.00;52.35;99304.63;5014637;28;20108;-69
2022/06/11 03:36:26;;;;;;;33.25;9.48;;;;;;;21.08;52.25;99306.19;5015373;28;20519;-72
2022/06/11 03:38:53;;;;;;;27.25;8.32;;;;;;;21.18;52.12;99296.06;5014997;28;20056;-70
2022/06/11 03:41:23;;;;;;;17.45;8.27;;;;;;;21.34;52.01;99308.53;5015071;28;20133;-71
2022/06/11 03:43:51;;;;;;;14.48;7.30;;;;;;;21.55;51.53;99305.63;5014962;28;20073;-71
2022/06/11 03:46:20;;;;;;;20.63;8.95;;;;;;;21.76;50.76;99318.88;5019989;28;20049;-71
2022/06/11 03:48:47;;;;;;;19.23;8.85;;;;;;;21.92;50.56;99318.41;5034553;28;20053;-71
2022/06/11 03:51:15;;;;;;;19.20;6.95;;;;;;;22.04;50.11;99312.25;5034643;28;20445;-72
2022/06/11 03:53:42;;;;;;;23.38;7.15;;;;;;;22.17;49.40;99317.00;5034455;28;20056;-71
2022/06/11 03:56:10;;;;;;;15.27;6.78;;;;;;;22.25;49.00;99317.75;5034652;28;20132;-71
2022/06/11 03:58:39;;;;;;;16.35;6.72;;;;;;;22.35;48.63;99316.91;5035058;28;20046;-70
2022/06/11 04:01:16;;;;;;;17.37;6.83;;;;;;;22.41;48.27;99318.84;5034495;28;20235;-70
2022/06/11 04:03:49;;;;;;;13.30;7.05;;;;;;;22.52;47.74;99322.44;5034324;28;20444;-70
2022/06/11 04:06:26;;;;;;;14.38;6.88;;;;;;;22.63;47.21;99317.50;5034299;28;20107;-70
2022/06/11 04:08:53;;;;;;;19.30;7.72;;;;;;;22.70;46.60;99325.13;5034363;28;20047;-69
2022/06/11 04:11:21;;;;;;;18.95;7.13;;;;;;;22.69;46.15;99326.34;5034547;28;20057;-71
2022/06/11 04:13:50;;;;;;;20.05;7.07;;;;;;;22.66;46.10;99316.66;5032706;28;20045;-70
2022/06/11 04:16:35;;;;;;;20.10;7.82;;;;;;;22.82;46.09;99319.75;5034162;28;20041;-70
2022/06/11 04:19:05;;;;;;;15.13;6.22;;;;;;;22.98;46.14;99302.94;5022643;28;20089;-69
2022/06/11 04:21:34;;;;;;;11.80;5.80;;;;;;;23.21;44.90;99302.31;5013906;28;20061;-70
2022/06/11 04:24:02;;;;;;;;;;;;;;;23.29;44.85;99307.53;5014736;28;20296;-69
2022/06/11 04:26:35;;;;;;;20.20;6.03;;;;;;;23.52;44.76;99306.03;5014006;28;19925;-69
2022/06/11 04:29:04;;;;;;;12.43;5.43;;;;;;;23.58;44.63;99305.13;5013870;28;20144;-69
2022/06/11 04:31:33;;;;;;;7.15;4.20;;;;;;;23.74;43.59;99313.06;5014019;28;20436;-68
2022/06/11 04:34:08;;;;;;;21.25;5.68;;;;;;;23.93;43.72;99315.22;5013693;28;20049;-68
2022/06/11 04:36:35;;;;;;;12.02;4.25;;;;;;;24.16;42.31;99312.47;5013891;28;20399;-69
2022/06/11 04:39:05;;;;;;;16.33;4.35;;;;;;;24.42;41.66;99317.34;5013841;28;20084;-68
2022/06/11 04:41:32;;;;;;;10.18;4.45;;;;;;;24.49;40.60;99315.19;5013860;28;20054;-69
2022/06/11 04:44:00;;;;;;;9.38;3.97;;;;;;;24.63;40.00;99306.41;5013750;28;20137;-68
2022/06/11 04:46:27;;;;;;;11.65;4.10;;;;;;;24.83;38.97;99313.00;5013349;28;20163;-69
2022/06/11 04:48:55;;;;;;;4.78;3.03;;;;;;;24.97;38.46;99317.63;5013388;28;20119;-69
2022/06/11 04:51:22;;;;;;;8.52;4.00;;;;;;;25.03;38.25;99313.03;5013616;28;20135;-70
2022/06/11 04:53:50;;;;;;;12.07;4.45;;;;;;;25.15;38.06;99326.63;5013859;28;20418;-69
2022/06/11 04:56:23;;;;;;;19.95;5.95;;;;;;;25.48;37.61;99325.59;5013596;28;20136;-70
2022/06/11 04:58:52;;;;;;;8.15;5.38;;;;;;;25.62;37.33;99325.31;5029415;28;20053;-68
2022/06/11 05:01:25;;;;;;;7.13;3.17;;;;;;;25.65;37.05;99333.00;5032873;28;20085;-71
2022/06/11 05:03:53;;;;;;;6.57;3.83;;;;;;;25.79;36.56;99340.44;5033014;28;20562;-71
2022/06/11 05:06:23;;;;;;;5.93;2.65;;;;;;;26.17;36.12;99345.28;5032952;28;20505;-71
2022/06/11 05:08:50;;;;;;;7.68;2.90;;;;;;;26.47;34.98;99341.34;5032947;28;20144;-72
2022/06/11 05:11:17;;;;;;;11.93;3.40;;;;;;;26.64;34.34;99335.22;5033136;28;20151;-71
2022/06/11 05:13:44;;;;;;;9.85;4.30;;;;;;;26.79;34.21;99324.25;5032863;28;20468;-71
2022/06/11 05:16:15;;;;;;;5.53;2.80;;;;;;;26.83;33.09;99322.91;5032554;28;20057;-72
2022/06/11 05:18:42;;;;;;;4.20;2.70;;;;;;;26.83;33.31;99324.16;5024473;28;20192;-72
2022/06/11 05:21:09;;;;;;;10.38;3.53;;;;;;;26.87;33.01;99319.16;5013087;28;20160;-70
2022/06/11 05:23:36;;;;;;;9.75;3.45;;;;;;;26.91;32.70;99326.38;5012865;28;20050;-72
2022/06/11 05:26:03;;;;;;;7.53;3.33;;;;;;;26.96;32.77;99327.91;5013186;28;20422;-72
2022/06/11 05:28:32;;;;;;;5.25;2.88;;;;;;;27.00;32.60;99332.28;5011860;28;20057;-72
2022/06/11 05:31:00;;;;;;;5.95;2.90;;;;;;;26.99;31.94;99327.81;5013017;28;20141;-71
2022/06/11 05:33:27;;;;;;;5.47;2.65;;;;;;;27.10;31.46;99331.19;5012481;28;20058;-73
2022/06/11 05:35:55;;;;;;;10.23;3.25;;;;;;;27.39;30.99;99336.94;5013066;28;20045;-69
2022/06/11 05:38:26;;;;;;;6.55;3.25;;;;;;;27.58;31.59;99342.50;5012917;28;20444;-70
2022/06/11 05:40:54;;;;;;;8.05;2.85;;;;;;;27.47;31.52;99332.66;5012780;28;20068;-70
2022/06/11 05:43:22;;;;;;;5.10;2.72;;;;;;;27.31;31.46;99332.69;5011317;28;20053;-70
2022/06/11 05:45:57;;;;;;;4.50;2.63;;;;;;;27.27;31.01;99331.97;5013016;28;20049;-70
2022/06/11 05:48:31;;;;;;;8.95;3.17;;;;;;;27.31;31.22;99321.25;5029067;28;20107;-70
2022/06/11 05:50:59;;;;;;;8.38;3.38;;;;;;;27.47;30.73;99326.94;5032455;28;20057;-70
2022/06/11 05:53:28;;;;;;;10.77;2.97;;;;;;;27.53;30.23;99333.69;5032400;28;20045;-70
2022/06/11 05:55:57;;;;;;;;;;;;;;;27.58;30.46;99336.00;5031443;28;20067;-70
2022/06/11 05:58:29;;;;;;;5.50;3.58;;;;;;;27.70;29.98;99338.91;5032323;28;19925;-70
2022/06/11 06:00:57;;;;;;;3.25;2.45;;;;;;;27.63;29.66;99326.88;5032113;28;20059;-70
2022/06/11 06:03:23;;;;;;;3.42;2.00;;;;;;;28.03;29.86;99328.94;5032298;28;20045;-69
2022/06/11 06:05:52;;;;;;;5.82;2.80;;;;;;;28.60;28.67;99333.69;5032353;28;20053;-69
2022/06/11 06:08:19;;;;;;;4.35;2.25;;;;;;;29.18;27.61;99337.03;5032520;28;20483;-70
2022/06/11 06:10:47;;;;;;;4.35;2.20;;;;;;;29.25;27.34;99331.84;5032572;28;20411;-70
2022/06/11 06:15:59;;;;;;;7.07;2.80;;;;;;;28.65;28.52;99350.28;5032679;28;20137;-70
2022/06/11 06:18:26;;;;;;;8.57;3.30;;;;;;;28.11;28.92;99344.63;5025711;28;20045;-69
2022/06/11 06:20:53;;;;;;;10.50;2.65;;;;;;;27.61;29.76;99363.66;5012655;28;20160;-72
2022/06/11 06:23:20;;;;;;;10.80;3.20;;;;;;;27.24;30.19;99358.56;5012597;28;20408;-70
2022/06/11 06:25:49;;;;;;;8.18;2.80;;;;;;;26.95;31.20;99360.56;5012333;28;20076;-70
2022/06/11 06:28:16;;;;;;;4.25;2.53;;;;;;;26.70;32.05;99359.13;5012525;28;20054;-70
2022/06/11 06:30:43;;;;;;;8.80;2.85;;;;;;;26.64;32.52;99363.75;5012516;28;20132;-70
2022/06/11 06:33:10;;;;;;;12.40;2.90;;;;;;;26.66;32.73;99361.28;5012327;28;20149;-70
2022/06/11 06:35:38;;;;;;;10.82;3.47;;;;;;;26.70;32.99;99356.28;5012820;28;20080;-72
2022/06/11 06:38:06;;;;;;;9.18;4.30;;;;;;;26.71;33.21;99366.44;5010693;28;20137;-69
2022/06/11 06:40:34;;;;;;;10.68;3.15;;;;;;;26.63;33.62;99367.88;5024767;28;20045;-69
2022/06/11 06:43:08;;;;;;;55.22;22.05;;;;;;;26.77;32.79;99356.09;5032075;28;20054;-70
2022/06/11 06:45:36;;;;;;;7.90;3.38;;;;;;;27.29;31.64;99364.56;5031876;28;20508;-70
2022/06/11 06:48:03;;;;;;;14.02;3.50;;;;;;;27.94;30.80;99359.44;5032354;28;20080;-69
2022/06/11 06:50:30;;;;;;;9.80;2.80;;;;;;;28.26;29.63;99365.00;5020061;28;20046;-70
2022/06/11 06:52:57;;;;;;;7.28;2.20;;;;;;;28.09;28.88;99355.72;5013079;28;20046;-70
2022/06/11 06:55:24;;;;;;;12.73;2.30;;;;;;;28.56;28.57;99355.91;5015570;28;20050;-70
2022/06/11 06:57:52;;;;;;;6.13;2.30;;;;;;;28.78;29.06;99368.28;5016304;28;20096;-69
2022/06/11 07:00:19;;;;;;;7.55;2.20;;;;;;;29.51;28.31;99362.03;5015649;28;20145;-69
2022/06/11 07:02:47;;;;;;;12.93;2.42;;;;;;;31.54;25.31;99363.72;5015775;28;20060;-70
2022/06/11 07:05:16;;;;;;;13.15;6.60;;;;;;;32.48;23.96;99360.59;5027863;28;20069;-68
2022/06/11 07:07:43;;;;;;;;;;;;;;;32.25;24.32;99356.31;5035446;28;20459;-69
2022/06/11 07:10:10;;;;;;;5.95;2.22;;;;;;;31.87;24.78;99361.00;5035080;28;19971;-72
2022/06/11 07:12:37;;;;;;;3.30;2.13;;;;;;;31.24;25.65;99376.13;5035345;28;20490;-72
2022/06/11 07:15:06;;;;;;;40.38;19.80;;;;;;;30.11;26.86;99369.19;5034905;28;20067;-72
2022/06/11 07:17:45;;;;;;;16.05;3.88;;;;;;;29.92;27.37;99372.41;5035146;28;20416;-72
2022/06/11 07:20:17;;;;;;;12.82;3.13;;;;;;;29.00;28.51;99374.88;5034905;28;20137;-73
2022/06/11 07:23:09;;;;;;;6.50;2.38;;;;;;;28.75;29.22;99369.19;5034746;28;20149;-72
2022/06/11 07:25:40;;;;;;;4.90;2.85;;;;;;;28.77;28.69;99366.66;5034792;28;20119;-72
2022/06/11 07:28:25;;;;;;;4.78;2.83;;;;;;;29.06;28.40;99372.25;5034502;28;20077;-72
2022/06/11 07:30:53;;;;;;;4.22;2.10;;;;;;;29.19;28.20;99376.69;5033632;28;20057;-73
2022/06/11 07:33:24;;;;;;;6.07;2.57;;;;;;;29.01;27.89;99376.47;5034528;28;20135;-72
2022/06/11 07:35:52;;;;;;;7.53;2.50;;;;;;;28.55;28.38;99380.06;5035148;28;20064;-73
2022/06/11 07:38:26;;;;;;;4.35;1.70;;;;;;;27.94;28.92;99383.13;5034987;28;20080;-73
2022/06/11 07:40:53;;;;;;;4.22;1.52;;;;;;;27.35;29.38;99379.91;5019512;28;20585;-72
2022/06/11 07:43:20;;;;;;;3.10;1.60;;;;;;;26.88;29.72;99378.66;5014774;28;20073;-72
2022/06/11 07:45:48;;;;;;;2.78;1.50;;;;;;;26.56;29.68;99385.13;5014877;28;20076;-71
2022/06/11 07:48:16;;;;;;;3.25;1.50;;;;;;;26.35;30.16;99385.63;5014732;28;20136;-72
2022/06/11 07:50:47;;;;;;;7.53;1.70;;;;;;;26.11;30.92;99380.50;5014637;28;20049;-72
2022/06/11 07:53:16;;;;;;;7.47;1.90;;;;;;;25.87;31.51;99382.59;5014791;28;20048;-73
2022/06/11 07:55:45;;;;;;;6.50;1.75;;;;;;;25.77;32.17;99395.03;5014258;28;20081;-73
2022/06/11 07:58:14;;;;;;;6.32;2.28;;;;;;;25.55;32.49;99404.44;5012887;28;20054;-71
2022/06/11 08:00:45;;;;;;;4.03;1.63;;;;;;;25.30;32.57;99398.34;5014651;28;20054;-71
2022/06/11 08:03:12;;;;;;;2.45;1.55;;;;;;;25.08;32.76;99398.72;5014261;28;20417;-72
2022/06/11 08:05:41;;;;;;;6.47;1.85;;;;;;;24.97;33.29;99403.81;5030108;28;20049;-71
2022/06/11 08:08:09;;;;;;;3.80;2.10;;;;;;;24.95;34.25;99402.63;5034668;28;20053;-71
2022/06/11 08:10:38;;;;;;;5.38;1.80;;;;;;;24.95;34.16;99405.47;5034415;28;20088;-71
2022/06/11 08:13:05;;;;;;;;;;;;;;;24.76;34.23;99409.06;5034430;28;20057;-71
2022/06/11 08:15:35;;;;;;;8.57;1.80;;;;;;;24.77;34.57;99408.63;5033786;28;19968;-71
2022/06/11 08:18:03;;;;;;;8.70;2.33;;;;;;;24.71;34.97;99406.69;5033893;28;20149;-71
2022/06/11 08:20:42;;;;;;;9.40;2.70;;;;;;;24.61;34.60;99391.38;5110901;27;20753;-72
2022/06/11 08:23:10;;;;;;;3.70;2.00;;;;;;;24.51;34.69;99398.03;5108646;28;20052;-72
2022/06/11 08:25:38;;;;;;;5.35;1.92;;;;;;;24.34;35.53;99410.47;5110369;28;20406;-71
2022/06/11 08:28:06;;;;;;;7.45;2.00;;;;;;;24.27;36.52;99406.91;5110647;28;20075;-73
2022/06/11 08:30:34;;;;;;;6.38;1.60;;;;;;;24.29;36.11;99410.16;5109907;28;20050;-72
2022/06/11 08:33:01;;;;;;;6.88;2.50;;;;;;;24.39;35.70;99412.06;5110185;28;20047;-72
2022/06/11 08:35:31;;;;;;;4.93;1.90;;;;;;;24.44;35.78;99418.06;5110074;28;20569;-72
2022/06/11 08:37:58;;;;;;;8.60;2.75;;;;;;;24.40;36.84;99407.97;5110135;28;20063;-73
2022/06/11 08:40:54;;;;;;;4.93;2.00;;;;;;;24.31;37.05;99408.47;5098369;28;20135;-72
2022/06/11 08:43:28;;;;;;;41.47;17.30;;;;;;;24.40;38.30;99407.97;5076407;28;20067;-72
2022/06/11 08:46:03;;;;;;;6.53;3.90;;;;;;;24.46;38.13;99409.91;5089552;28;20534;-73
2022/06/11 08:48:47;;;;;;;5.90;2.58;;;;;;;24.50;38.02;99415.53;5089513;28;20127;-73
2022/06/11 08:51:35;;;;;;;6.03;2.60;;;;;;;24.59;39.01;99399.53;5089566;28;20072;-72
2022/06/11 08:54:06;;;;;;;6.80;2.70;;;;;;;24.94;39.25;99406.72;5089333;28;20048;-72
2022/06/11 08:56:50;;;;;;;8.27;3.13;;;;;;;25.48;38.55;99398.84;5089558;28;20414;-71
2022/06/11 08:59:27;;;;;;;5.85;3.60;;;;;;;25.88;38.18;99389.09;5089044;28;20556;-71
2022/06/11 09:01:54;;;;;;;7.80;3.05;;;;;;;26.09;38.46;99400.09;5090081;28;20062;-73
2022/06/11 09:04:29;;;;;;;5.15;2.53;;;;;;;26.05;39.15;99400.16;5088987;28;20139;-72
2022/06/11 09:07:16;;;;;;;8.40;2.00;;;;;;;25.86;37.95;99395.25;5089141;28;20487;-72
2022/06/11 09:09:49;;;;;;;3.95;1.98;;;;;;;25.54;37.11;99397.91;5088683;28;20063;-72
2022/06/11 09:12:28;;;;;;;36.08;14.23;;;;;;;25.18;36.92;99399.78;5089131;28;20131;-72
2022/06/11 09:14:57;;;;;;;3.47;2.00;;;;;;;24.87;38.22;99401.16;5088687;28;20150;-71
2022/06/11 09:17:48;;;;;;;4.25;2.00;;;;;;;24.70;38.06;99410.78;5088759;28;20131;-72
2022/06/11 09:20:39;;;;;;;5.25;1.80;;;;;;;24.60;38.66;99406.03;5085332;28;20063;-72
2022/06/11 09:23:24;;;;;;;6.45;1.98;;;;;;;24.51;38.80;99412.25;5088882;28;20135;-71
2022/06/11 09:26:03;;;;;;;3.60;1.80;;;;;;;24.40;38.76;99419.34;5088919;28;20547;-72
2022/06/11 09:28:42;;;;;;;10.00;2.25;;;;;;;24.12;38.46;99412.00;5089020;28;20040;-72
2022/06/11 09:31:36;;;;;;;6.18;1.80;;;;;;;23.94;38.03;99404.91;5080553;28;20140;-72
2022/06/11 09:34:11;;;;;;;10.93;1.85;;;;;;;23.94;38.17;99397.19;5074163;28;20052;-72
2022/06/11 09:37:07;;;;;;;4.80;1.88;;;;;;;24.04;38.04;99401.94;5075384;28;20076;-70
2022/06/11 09:39:37;;;;;;;5.38;2.47;;;;;;;24.23;37.41;99400.47;5074854;28;20044;-70
2022/06/11 09:42:19;;;;;;;5.15;1.42;;;;;;;24.56;36.47;99399.59;5075007;28;20045;-71
2022/06/11 09:45:03;;;;;;;5.30;1.90;;;;;;;24.94;36.68;99409.56;5075119;28;20060;-73
2022/06/11 09:47:55;;;;;;;8.27;1.85;;;;;;;25.18;35.78;99408.34;5076854;28;20495;-72
2022/06/11 09:50:50;;;;;;;6.43;2.20;;;;;;;25.53;36.06;99404.88;5095237;28;20135;-72
2022/06/11 09:53:36;;;;;;;5.55;1.88;;;;;;;25.66;36.10;99402.97;5095193;28;20054;-72
2022/06/11 09:56:19;;;;;;;6.80;1.63;;;;;;;25.84;35.85;99394.88;5095227;28;20052;-71
2022/06/11 09:58:55;;;;;;;6.80;1.63;;;;;;;25.76;35.44;99401.97;5077143;28;20147;-71
2022/06/11 10:01:31;;;;;;;5.18;1.65;;;;;;;25.76;34.60;99401.97;5088899;28;20052;-71
2022/06/11 10:04:10;;;;;;;2.55;1.80;;;;;;;26.00;34.12;99392.13;5092807;28;20142;-71
2022/06/11 10:06:59;;;;;;;5.95;1.85;;;;;;;26.55;32.92;99392.09;5074766;28;20044;-71
2022/06/11 10:09:42;;;;;;;3.15;2.17;;;;;;;26.83;32.88;99388.56;5074893;28;20052;-73
2022/06/11 10:12:20;;;;;;;5.68;1.90;;;;;;;26.91;32.38;99389.19;5074731;28;20055;-71
2022/06/11 10:14:54;;;;;;;6.85;2.00;;;;;;;26.73;33.05;99385.97;5075726;28;20407;-71
2022/06/11 10:17:55;;;;;;;4.65;1.83;;;;;;;26.51;33.36;99382.81;5094761;28;20044;-71
2022/06/11 10:20:32;;;;;;;4.68;1.80;;;;;;;26.40;33.19;99382.25;5094117;28;20059;-71
2022/06/11 10:23:20;;;;;;;3.35;1.80;;;;;;;26.21;33.05;99385.16;5094641;28;20130;-71
2022/06/11 10:26:07;;;;;;;4.82;1.50;;;;;;;25.80;33.53;99377.03;5094740;28;20139;-71
2022/06/11 10:28:40;;;;;;;3.50;1.70;;;;;;;25.51;33.93;99376.00;5094339;28;20066;-72
2022/06/11 10:31:31;;;;;;;3.45;1.80;;;;;;;25.54;33.96;99375.13;5094190;28;20040;-71
2022/06/11 10:34:13;;;;;;;8.98;2.50;;;;;;;25.69;34.21;99382.16;5094339;28;20544;-72
2022/06/11 10:37:07;;;;;;;6.25;2.03;;;;;;;26.10;34.21;99373.97;5094908;28;20082;-71
2022/06/11 10:40:01;;;;;;;3.75;2.10;;;;;;;26.46;33.46;99369.06;5073670;28;20053;-71
2022/06/11 10:42:39;;;;;;;12.25;3.33;;;;;;;26.52;33.97;99367.28;5073119;28;20059;-72
2022/06/11 10:45:13;;;;;;;4.00;2.33;;;;;;;26.41;34.62;99360.25;5073662;28;20036;-70
2022/06/11 10:47:44;;;;;;;6.10;2.03;;;;;;;26.27;34.59;99358.53;5073688;28;20051;-71
2022/06/11 10:50:14;;;;;;;4.40;2.10;;;;;;;26.46;34.33;99366.22;5084628;28;20080;-71
2022/06/11 10:52:53;;;;;;;7.68;1.95;;;;;;;26.63;34.55;99367.88;5094894;28;20407;-71
2022/06/11 10:55:32;;;;;;;46.97;22.13;;;;;;;26.87;34.13;99368.50;5094174;28;20087;-71
2022/06/11 10:58:23;;;;;;;4.15;2.83;;;;;;;26.63;34.74;99367.88;5094134;28;20072;-72
2022/06/11 11:00:58;;;;;;;7.70;2.65;;;;;;;26.53;34.97;99368.88;5063442;28;20476;-71
2022/06/11 11:03:44;;;;;;;3.28;2.30;;;;;;;26.43;35.47;99369.94;5093765;28;20059;-72
2022/06/11 11:06:25;;;;;;;13.63;3.38;;;;;;;26.33;36.03;99365.31;5073042;28;20060;-70
2022/06/11 11:08:58;;;;;;;5.38;2.55;;;;;;;26.25;35.87;99369.56;5073450;28;20044;-71
2022/06/11 11:11:30;;;;;;;4.68;2.28;;;;;;;26.38;35.64;99363.97;5073571;28;20056;-71
2022/06/11 11:14:18;;;;;;;5.90;2.55;;;;;;;26.38;35.87;99364.75;5073346;28;20068;-70
2022/06/11 11:16:49;;;;;;;10.60;2.58;;;;;;;26.42;35.80;99365.50;5072917;28;20087;-72
2022/06/11 11:19:22;;;;;;;10.20;2.42;;;;;;;26.49;35.52;99368.19;5072884;28;20059;-71
2022/06/11 11:22:04;;;;;;;8.63;3.08;;;;;;;26.61;35.29;99376.03;5073437;28;20582;-71
2022/06/11 11:24:36;;;;;;;6.68;3.03;;;;;;;26.56;34.88;99370.84;5073192;28;20083;-71
2022/06/11 11:27:09;;;;;;;8.65;2.90;;;;;;;26.45;34.99;99373.19;5073230;28;20083;-71
2022/06/11 11:29:40;;;;;;;7.72;2.90;;;;;;;26.09;35.57;99374.41;5073055;28;20055;-72
2022/06/11 11:32:38;;;;;;;7.60;3.05;;;;;;;25.72;36.06;99386.97;5072164;28;20060;-72
2022/06/11 11:35:21;;;;;;;7.50;2.93;;;;;;;25.57;36.45;99379.94;5072996;28;20410;-72
2022/06/11 11:37:57;;;;;;;6.07;2.97;;;;;;;25.53;36.46;99375.56;5072670;28;20114;-72
2022/06/11 11:40:30;;;;;;;11.13;2.42;;;;;;;25.61;36.58;99374.97;5091690;28;20056;-72
2022/06/11 11:43:04;;;;;;;7.53;4.10;;;;;;;25.64;36.36;99376.94;5092882;28;20056;-70
2022/06/11 11:45:45;;;;;;;9.30;3.38;;;;;;;25.65;36.43;99378.56;5092309;28;20048;-69
2022/06/11 11:48:28;;;;;;;8.95;3.03;;;;;;;25.67;36.49;99375.28;5077376;28;20040;-71
2022/06/11 11:51:18;;;;;;;8.98;3.13;;;;;;;25.65;36.18;99372.88;5073011;28;20458;-70
2022/06/11 11:53:53;;;;;;;12.32;2.97;;;;;;;25.57;36.46;99379.94;5062973;28;20049;-72
2022/06/11 11:56:29;;;;;;;9.95;3.03;;;;;;;25.50;36.56;99380.09;5072791;28;20471;-73
2022/06/11 11:59:01;;;;;;;8.55;2.90;;;;;;;25.44;36.50;99370.44;5072653;28;20538;-71
2022/06/11 12:01:29;;;;;;;6.40;2.60;;;;;;;25.42;36.49;99374.97;5072394;28;20135;-72
2022/06/11 12:04:29;;;;;;;6.22;2.80;;;;;;;25.24;36.62;99383.00;5072863;28;20158;-72